sensor_id;sensor_type;location;lat;lon;timestamp;temperature;humidity
37874;DHT22;23709;48.078;11.684;2023-07-31T00:02:21;17.70;99.90
37874;DHT22;23709;48.078;11.684;2023-07-31T00:04:53;17.70;99.90
37874;DHT22;23709;48.078;11.684;2023-07-31T00:07:25;17.70;99.90
37874;DHT22;23709;48.078;11.684;2023-07-31T00:09:58;17.70;99.90
37874;DHT22;23709;48.078;11.684;2023-07-31T00:12:30;17.60;99.90
37874;DHT22;23709;48.078;11.684;2023-07-31T00:15:02;17.60;99.90
37874;DHT22;23709;48.078;11.684;2023-07-31T00:17:36;17.50;99.90
37874;DHT22;23709;48.078;11.684;2023-07-31T00:20:09;17.40;99.90
37874;DHT22;23709;48.078;11.684;2023-07-31T00:22:41;17.40;99.90
37874;DHT22;23709;48.078;11.684;2023-07-31T00:25:14;17.30;99.90
37874;DHT22;23709;48.078;11.684;2023-07-31T00:27:46;17.40;99.90
37874;DHT22;23709;48.078;11.684;2023-07-31T00:30:18;17.30;99.90
37874;DHT22;23709;48.078;11.684;2023-07-31T00:32:51;17.20;99.90
37874;DHT22;23709;48.078;11.684;2023-07-31T00:35:24;17.10;99.90
37874;DHT22;23709;48.078;11.684;2023-07-31T00:37:58;17.20;99.90
37874;DHT22;23709;48.078;11.684;2023-07-31T00:40:35;17.20;99.90
37874;DHT22;23709;48.078;11.684;2023-07-31T00:43:09;17.20;99.90
37874;DHT22;23709;48.078;11.684;2023-07-31T00:45:41;17.10;99.90
37874;DHT22;23709;48.078;11.684;2023-07-31T00:48:15;17.00;99.90
37874;DHT22;23709;48.078;11.684;2023-07-31T00:50:48;17.00;99.90
37874;DHT22;23709;48.078;11.684;2023-07-31T00:53:20;17.00;99.90
37874;DHT22;23709;48.078;11.684;2023-07-31T00:55:54;16.90;99.90
37874;DHT22;23709;48.078;11.684;2023-07-31T00:58:27;16.80;99.90
37874;DHT22;23709;48.078;11.684;2023-07-31T01:00:59;16.90;99.90
37874;DHT22;23709;48.078;11.684;2023-07-31T01:03:32;16.80;99.90
37874;DHT22;23709;48.078;11.684;2023-07-31T01:11:34;16.80;99.90
37874;DHT22;23709;48.078;11.684;2023-07-31T01:14:10;16.80;99.90
37874;DHT22;23709;48.078;11.684;2023-07-31T01:16:42;16.80;99.90
37874;DHT22;23709;48.078;11.684;2023-07-31T01:19:15;16.80;99.90
37874;DHT22;23709;48.078;11.684;2023-07-31T01:25:05;16.70;99.90
37874;DHT22;23709;48.078;11.684;2023-07-31T01:27:51;16.80;99.90
37874;DHT22;23709;48.078;11.684;2023-07-31T01:30:28;16.80;99.90
37874;DHT22;23709;48.078;11.684;2023-07-31T01:33:03;16.80;99.90
37874;DHT22;23709;48.078;11.684;2023-07-31T01:35:38;16.80;99.90
37874;DHT22;23709;48.078;11.684;2023-07-31T01:38:11;16.80;99.90
37874;DHT22;23709;48.078;11.684;2023-07-31T01:40:43;16.80;99.90
37874;DHT22;23709;48.078;11.684;2023-07-31T01:43:16;16.80;99.90
37874;DHT22;23709;48.078;11.684;2023-07-31T01:45:48;16.90;99.90
37874;DHT22;23709;48.078;11.684;2023-07-31T01:48:22;16.90;99.90
37874;DHT22;23709;48.078;11.684;2023-07-31T01:50:55;16.90;99.90
37874;DHT22;23709;48.078;11.684;2023-07-31T01:53:28;16.90;99.90
37874;DHT22;23709;48.078;11.684;2023-07-31T01:56:01;16.90;99.90
37874;DHT22;23709;48.078;11.684;2023-07-31T01:58:35;16.90;99.90
37874;DHT22;23709;48.078;11.684;2023-07-31T02:01:07;16.80;99.90
37874;DHT22;23709;48.078;11.684;2023-07-31T02:03:39;16.80;99.90
37874;DHT22;23709;48.078;11.684;2023-07-31T02:06:13;16.80;99.90
37874;DHT22;23709;48.078;11.684;2023-07-31T02:08:45;16.80;99.90
37874;DHT22;23709;48.078;11.684;2023-07-31T02:11:17;16.80;99.90
37874;DHT22;23709;48.078;11.684;2023-07-31T02:13:50;16.80;99.90
37874;DHT22;23709;48.078;11.684;2023-07-31T02:16:22;16.90;99.90
37874;DHT22;23709;48.078;11.684;2023-07-31T02:18:55;16.90;99.90
37874;DHT22;23709;48.078;11.684;2023-07-31T02:21:27;16.90;99.90
37874;DHT22;23709;48.078;11.684;2023-07-31T02:23:59;16.80;99.90
37874;DHT22;23709;48.078;11.684;2023-07-31T02:26:31;16.80;99.90
37874;DHT22;23709;48.078;11.684;2023-07-31T02:29:03;16.90;99.90
37874;DHT22;23709;48.078;11.684;2023-07-31T02:31:36;16.80;99.90
37874;DHT22;23709;48.078;11.684;2023-07-31T02:34:09;16.70;99.90
37874;DHT22;23709;48.078;11.684;2023-07-31T02:36:42;16.60;99.90
37874;DHT22;23709;48.078;11.684;2023-07-31T02:39:14;16.60;99.90
37874;DHT22;23709;48.078;11.684;2023-07-31T02:41:46;16.50;99.90
37874;DHT22;23709;48.078;11.684;2023-07-31T02:44:19;16.60;99.90
37874;DHT22;23709;48.078;11.684;2023-07-31T02:46:53;16.60;99.90
37874;DHT22;23709;48.078;11.684;2023-07-31T02:49:25;16.60;99.90
37874;DHT22;23709;48.078;11.684;2023-07-31T02:51:57;16.50;99.90
37874;DHT22;23709;48.078;11.684;2023-07-31T02:54:29;16.40;99.90
37874;DHT22;23709;48.078;11.684;2023-07-31T02:57:03;16.50;99.90
37874;DHT22;23709;48.078;11.684;2023-07-31T02:59:35;16.40;99.90
37874;DHT22;23709;48.078;11.684;2023-07-31T03:02:08;16.30;99.90
37874;DHT22;23709;48.078;11.684;2023-07-31T03:04:40;16.30;99.90
37874;DHT22;23709;48.078;11.684;2023-07-31T03:07:13;16.30;99.90
37874;DHT22;23709;48.078;11.684;2023-07-31T03:09:45;16.20;99.90
37874;DHT22;23709;48.078;11.684;2023-07-31T03:12:18;16.10;99.90
37874;DHT22;23709;48.078;11.684;2023-07-31T03:14:52;16.00;99.90
37874;DHT22;23709;48.078;11.684;2023-07-31T03:17:24;15.90;99.90
37874;DHT22;23709;48.078;11.684;2023-07-31T03:19:57;15.80;99.90
37874;DHT22;23709;48.078;11.684;2023-07-31T03:22:29;15.70;99.90
37874;DHT22;23709;48.078;11.684;2023-07-31T03:25:02;15.60;99.90
37874;DHT22;23709;48.078;11.684;2023-07-31T03:27:35;15.60;99.90
37874;DHT22;23709;48.078;11.684;2023-07-31T03:30:07;15.60;99.90
37874;DHT22;23709;48.078;11.684;2023-07-31T03:32:41;15.50;99.90
37874;DHT22;23709;48.078;11.684;2023-07-31T03:35:13;15.50;99.90
37874;DHT22;23709;48.078;11.684;2023-07-31T03:37:46;15.50;99.90
37874;DHT22;23709;48.078;11.684;2023-07-31T03:40:19;15.40;99.90
37874;DHT22;23709;48.078;11.684;2023-07-31T03:42:51;15.40;99.90
37874;DHT22;23709;48.078;11.684;2023-07-31T03:45:24;15.40;99.90
37874;DHT22;23709;48.078;11.684;2023-07-31T03:47:56;15.30;99.90
37874;DHT22;23709;48.078;11.684;2023-07-31T03:50:30;15.30;99.90
37874;DHT22;23709;48.078;11.684;2023-07-31T03:53:02;15.20;99.90
37874;DHT22;23709;48.078;11.684;2023-07-31T03:55:35;15.20;99.90
37874;DHT22;23709;48.078;11.684;2023-07-31T03:58:07;15.20;99.90
37874;DHT22;23709;48.078;11.684;2023-07-31T04:00:40;15.20;99.90
37874;DHT22;23709;48.078;11.684;2023-07-31T04:03:12;15.20;99.90
37874;DHT22;23709;48.078;11.684;2023-07-31T04:05:45;15.20;99.90
37874;DHT22;23709;48.078;11.684;2023-07-31T04:08:17;15.30;99.90
37874;DHT22;23709;48.078;11.684;2023-07-31T04:10:49;15.30;99.90
37874;DHT22;23709;48.078;11.684;2023-07-31T04:13:22;15.30;99.90
37874;DHT22;23709;48.078;11.684;2023-07-31T04:15:55;15.30;99.90
37874;DHT22;23709;48.078;11.684;2023-07-31T04:18:27;15.30;99.90
37874;DHT22;23709;48.078;11.684;2023-07-31T04:21:00;15.30;99.90
37874;DHT22;23709;48.078;11.684;2023-07-31T04:23:33;15.30;99.90
37874;DHT22;23709;48.078;11.684;2023-07-31T04:26:05;15.40;99.90
37874;DHT22;23709;48.078;11.684;2023-07-31T04:28:38;15.40;99.90
37874;DHT22;23709;48.078;11.684;2023-07-31T04:31:11;15.40;99.90
37874;DHT22;23709;48.078;11.684;2023-07-31T04:33:43;15.40;99.90
37874;DHT22;23709;48.078;11.684;2023-07-31T04:36:15;15.60;99.90
37874;DHT22;23709;48.078;11.684;2023-07-31T04:38:47;15.70;99.90
37874;DHT22;23709;48.078;11.684;2023-07-31T04:41:20;15.70;99.90
37874;DHT22;23709;48.078;11.684;2023-07-31T04:43:52;15.60;99.90
37874;DHT22;23709;48.078;11.684;2023-07-31T04:46:24;15.60;99.90
37874;DHT22;23709;48.078;11.684;2023-07-31T04:48:57;15.70;99.90
37874;DHT22;23709;48.078;11.684;2023-07-31T04:51:29;15.60;99.90
37874;DHT22;23709;48.078;11.684;2023-07-31T04:54:01;15.60;99.90
37874;DHT22;23709;48.078;11.684;2023-07-31T04:56:34;15.70;99.90
37874;DHT22;23709;48.078;11.684;2023-07-31T04:59:06;15.70;99.90
37874;DHT22;23709;48.078;11.684;2023-07-31T05:01:38;15.70;99.90
37874;DHT22;23709;48.078;11.684;2023-07-31T05:04:14;15.80;99.90
37874;DHT22;23709;48.078;11.684;2023-07-31T05:06:46;15.80;99.90
37874;DHT22;23709;48.078;11.684;2023-07-31T05:09:19;15.80;99.90
37874;DHT22;23709;48.078;11.684;2023-07-31T05:11:52;15.90;99.90
37874;DHT22;23709;48.078;11.684;2023-07-31T05:14:26;16.00;99.90
37874;DHT22;23709;48.078;11.684;2023-07-31T05:16:58;16.20;99.90
37874;DHT22;23709;48.078;11.684;2023-07-31T05:19:30;16.30;99.90
37874;DHT22;23709;48.078;11.684;2023-07-31T05:22:03;16.40;99.90
37874;DHT22;23709;48.078;11.684;2023-07-31T05:24:35;16.50;99.90
37874;DHT22;23709;48.078;11.684;2023-07-31T05:27:07;16.70;99.90
37874;DHT22;23709;48.078;11.684;2023-07-31T05:29:40;16.70;99.90
37874;DHT22;23709;48.078;11.684;2023-07-31T05:32:13;16.80;99.90
37874;DHT22;23709;48.078;11.684;2023-07-31T05:34:45;16.90;99.90
37874;DHT22;23709;48.078;11.684;2023-07-31T05:37:17;17.00;99.90
37874;DHT22;23709;48.078;11.684;2023-07-31T05:39:50;17.10;99.90
37874;DHT22;23709;48.078;11.684;2023-07-31T05:42:23;17.20;99.90
37874;DHT22;23709;48.078;11.684;2023-07-31T05:44:55;17.20;99.90
37874;DHT22;23709;48.078;11.684;2023-07-31T05:47:27;17.30;99.90
37874;DHT22;23709;48.078;11.684;2023-07-31T05:50:00;17.40;99.90
37874;DHT22;23709;48.078;11.684;2023-07-31T05:52:32;17.50;99.90
37874;DHT22;23709;48.078;11.684;2023-07-31T05:55:04;17.50;99.90
37874;DHT22;23709;48.078;11.684;2023-07-31T05:57:37;17.60;99.90
37874;DHT22;23709;48.078;11.684;2023-07-31T06:00:09;17.60;99.90
37874;DHT22;23709;48.078;11.684;2023-07-31T06:02:42;17.70;99.90
37874;DHT22;23709;48.078;11.684;2023-07-31T06:05:14;17.70;99.90
37874;DHT22;23709;48.078;11.684;2023-07-31T06:07:47;17.80;99.90
37874;DHT22;23709;48.078;11.684;2023-07-31T06:10:19;18.00;99.90
37874;DHT22;23709;48.078;11.684;2023-07-31T06:12:52;18.00;99.90
37874;DHT22;23709;48.078;11.684;2023-07-31T06:15:24;18.10;99.90
37874;DHT22;23709;48.078;11.684;2023-07-31T06:17:56;18.10;99.90
37874;DHT22;23709;48.078;11.684;2023-07-31T06:20:29;18.10;99.90
37874;DHT22;23709;48.078;11.684;2023-07-31T06:23:02;18.20;99.90
37874;DHT22;23709;48.078;11.684;2023-07-31T06:25:35;18.30;99.90
37874;DHT22;23709;48.078;11.684;2023-07-31T06:28:07;18.40;99.90
37874;DHT22;23709;48.078;11.684;2023-07-31T06:30:40;18.50;99.90
37874;DHT22;23709;48.078;11.684;2023-07-31T06:33:12;18.70;99.90
37874;DHT22;23709;48.078;11.684;2023-07-31T06:35:45;18.60;99.90
37874;DHT22;23709;48.078;11.684;2023-07-31T06:38:23;18.60;99.90
37874;DHT22;23709;48.078;11.684;2023-07-31T06:40:56;18.60;99.90
37874;DHT22;23709;48.078;11.684;2023-07-31T06:43:28;18.60;99.90
37874;DHT22;23709;48.078;11.684;2023-07-31T06:46:07;18.60;99.90
37874;DHT22;23709;48.078;11.684;2023-07-31T06:48:39;18.70;99.90
37874;DHT22;23709;48.078;11.684;2023-07-31T06:51:11;18.70;99.90
37874;DHT22;23709;48.078;11.684;2023-07-31T06:53:44;18.60;99.90
37874;DHT22;23709;48.078;11.684;2023-07-31T06:56:17;18.60;99.90
37874;DHT22;23709;48.078;11.684;2023-07-31T06:58:49;18.60;99.90
37874;DHT22;23709;48.078;11.684;2023-07-31T07:01:21;18.70;99.90
37874;DHT22;23709;48.078;11.684;2023-07-31T07:03:54;18.70;99.90
37874;DHT22;23709;48.078;11.684;2023-07-31T07:06:27;18.70;99.90
37874;DHT22;23709;48.078;11.684;2023-07-31T07:08:59;18.90;99.90
37874;DHT22;23709;48.078;11.684;2023-07-31T07:11:32;19.00;99.90
37874;DHT22;23709;48.078;11.684;2023-07-31T07:14:04;19.00;99.90
37874;DHT22;23709;48.078;11.684;2023-07-31T07:16:36;19.10;99.90
37874;DHT22;23709;48.078;11.684;2023-07-31T07:19:09;19.10;99.90
37874;DHT22;23709;48.078;11.684;2023-07-31T07:21:42;19.10;99.90
37874;DHT22;23709;48.078;11.684;2023-07-31T07:24:15;19.10;99.90
37874;DHT22;23709;48.078;11.684;2023-07-31T07:26:47;19.10;99.90
37874;DHT22;23709;48.078;11.684;2023-07-31T07:29:19;19.20;99.90
37874;DHT22;23709;48.078;11.684;2023-07-31T07:31:51;19.20;99.90
37874;DHT22;23709;48.078;11.684;2023-07-31T07:34:26;19.20;99.90
37874;DHT22;23709;48.078;11.684;2023-07-31T07:36:58;19.20;99.90
37874;DHT22;23709;48.078;11.684;2023-07-31T07:39:30;19.30;99.90
37874;DHT22;23709;48.078;11.684;2023-07-31T07:42:03;19.40;99.90
37874;DHT22;23709;48.078;11.684;2023-07-31T07:44:35;19.40;99.90
37874;DHT22;23709;48.078;11.684;2023-07-31T07:47:07;19.60;99.90
37874;DHT22;23709;48.078;11.684;2023-07-31T07:49:40;19.50;99.90
37874;DHT22;23709;48.078;11.684;2023-07-31T07:52:12;19.60;99.90
37874;DHT22;23709;48.078;11.684;2023-07-31T07:54:45;19.60;99.90
37874;DHT22;23709;48.078;11.684;2023-07-31T07:57:17;19.70;99.90
37874;DHT22;23709;48.078;11.684;2023-07-31T07:59:50;19.70;99.90
37874;DHT22;23709;48.078;11.684;2023-07-31T08:02:22;19.70;99.90
37874;DHT22;23709;48.078;11.684;2023-07-31T08:04:55;19.70;99.90
37874;DHT22;23709;48.078;11.684;2023-07-31T08:07:27;19.70;99.90
37874;DHT22;23709;48.078;11.684;2023-07-31T08:09:59;19.70;99.90
37874;DHT22;23709;48.078;11.684;2023-07-31T08:12:32;19.60;99.90
37874;DHT22;23709;48.078;11.684;2023-07-31T08:15:05;19.70;99.90
37874;DHT22;23709;48.078;11.684;2023-07-31T08:17:38;19.70;99.90
37874;DHT22;23709;48.078;11.684;2023-07-31T08:20:10;19.80;99.90
37874;DHT22;23709;48.078;11.684;2023-07-31T08:22:43;19.90;99.90
37874;DHT22;23709;48.078;11.684;2023-07-31T08:25:15;20.20;99.90
37874;DHT22;23709;48.078;11.684;2023-07-31T08:27:48;20.30;99.90
37874;DHT22;23709;48.078;11.684;2023-07-31T08:30:20;20.40;99.90
37874;DHT22;23709;48.078;11.684;2023-07-31T08:32:53;20.50;99.90
37874;DHT22;23709;48.078;11.684;2023-07-31T08:35:26;20.60;99.90
37874;DHT22;23709;48.078;11.684;2023-07-31T08:38:00;20.90;99.90
37874;DHT22;23709;48.078;11.684;2023-07-31T08:40:36;21.10;99.90
37874;DHT22;23709;48.078;11.684;2023-07-31T08:43:12;21.20;99.90
37874;DHT22;23709;48.078;11.684;2023-07-31T08:45:45;21.10;99.70
37874;DHT22;23709;48.078;11.684;2023-07-31T08:48:18;21.10;99.70
37874;DHT22;23709;48.078;11.684;2023-07-31T08:50:52;21.30;99.90
37874;DHT22;23709;48.078;11.684;2023-07-31T08:53:25;21.20;98.90
37874;DHT22;23709;48.078;11.684;2023-07-31T08:55:58;21.10;99.00
37874;DHT22;23709;48.078;11.684;2023-07-31T08:58:32;20.90;99.40
37874;DHT22;23709;48.078;11.684;2023-07-31T09:01:04;20.80;99.70
37874;DHT22;23709;48.078;11.684;2023-07-31T09:03:40;20.90;99.90
37874;DHT22;23709;48.078;11.684;2023-07-31T09:06:15;20.80;99.80
37874;DHT22;23709;48.078;11.684;2023-07-31T09:08:50;20.80;99.90
37874;DHT22;23709;48.078;11.684;2023-07-31T09:11:24;20.80;99.90
37874;DHT22;23709;48.078;11.684;2023-07-31T09:13:58;20.90;99.90
37874;DHT22;23709;48.078;11.684;2023-07-31T09:16:34;21.00;99.70
37874;DHT22;23709;48.078;11.684;2023-07-31T09:19:13;21.00;99.20
37874;DHT22;23709;48.078;11.684;2023-07-31T09:21:47;21.10;99.20
37874;DHT22;23709;48.078;11.684;2023-07-31T09:24:30;21.20;98.80
37874;DHT22;23709;48.078;11.684;2023-07-31T09:27:03;21.20;98.20
37874;DHT22;23709;48.078;11.684;2023-07-31T09:29:39;21.30;99.30
37874;DHT22;23709;48.078;11.684;2023-07-31T09:32:18;21.40;99.00
37874;DHT22;23709;48.078;11.684;2023-07-31T09:34:52;21.40;98.70
37874;DHT22;23709;48.078;11.684;2023-07-31T09:37:25;21.50;99.00
37874;DHT22;23709;48.078;11.684;2023-07-31T09:39:58;21.60;97.70
37874;DHT22;23709;48.078;11.684;2023-07-31T09:42:30;21.70;98.30
37874;DHT22;23709;48.078;11.684;2023-07-31T09:45:08;21.90;98.50
37874;DHT22;23709;48.078;11.684;2023-07-31T09:47:46;21.90;97.20
37874;DHT22;23709;48.078;11.684;2023-07-31T09:50:23;21.80;97.40
37874;DHT22;23709;48.078;11.684;2023-07-31T09:52:56;21.80;97.30
37874;DHT22;23709;48.078;11.684;2023-07-31T09:55:29;21.90;97.60
37874;DHT22;23709;48.078;11.684;2023-07-31T09:58:09;22.00;97.20
37874;DHT22;23709;48.078;11.684;2023-07-31T10:00:43;22.30;97.60
37874;DHT22;23709;48.078;11.684;2023-07-31T10:03:16;22.30;96.30
37874;DHT22;23709;48.078;11.684;2023-07-31T10:05:50;22.50;96.20
37874;DHT22;23709;48.078;11.684;2023-07-31T10:08:29;22.60;95.60
37874;DHT22;23709;48.078;11.684;2023-07-31T10:11:02;22.60;93.70
37874;DHT22;23709;48.078;11.684;2023-07-31T10:13:36;22.60;94.70
37874;DHT22;23709;48.078;11.684;2023-07-31T10:16:09;22.70;93.60
37874;DHT22;23709;48.078;11.684;2023-07-31T10:18:42;22.80;93.20
37874;DHT22;23709;48.078;11.684;2023-07-31T10:21:15;22.90;92.70
37874;DHT22;23709;48.078;11.684;2023-07-31T10:23:49;23.00;92.50
37874;DHT22;23709;48.078;11.684;2023-07-31T10:26:23;23.20;92.70
37874;DHT22;23709;48.078;11.684;2023-07-31T10:28:58;23.70;93.00
37874;DHT22;23709;48.078;11.684;2023-07-31T10:31:30;23.80;91.70
37874;DHT22;23709;48.078;11.684;2023-07-31T10:34:03;24.00;91.30
37874;DHT22;23709;48.078;11.684;2023-07-31T10:36:36;24.00;91.40
37874;DHT22;23709;48.078;11.684;2023-07-31T10:39:35;24.30;90.60
37874;DHT22;23709;48.078;11.684;2023-07-31T10:42:12;24.80;90.30
37874;DHT22;23709;48.078;11.684;2023-07-31T10:44:47;25.00;86.50
37874;DHT22;23709;48.078;11.684;2023-07-31T10:47:23;24.70;88.90
37874;DHT22;23709;48.078;11.684;2023-07-31T10:50:21;24.70;88.80
37874;DHT22;23709;48.078;11.684;2023-07-31T10:52:56;24.90;85.60
37874;DHT22;23709;48.078;11.684;2023-07-31T10:55:40;24.70;82.70
37874;DHT22;23709;48.078;11.684;2023-07-31T10:58:13;24.30;81.60
37874;DHT22;23709;48.078;11.684;2023-07-31T11:00:46;24.10;86.80
37874;DHT22;23709;48.078;11.684;2023-07-31T11:03:19;24.10;85.90
37874;DHT22;23709;48.078;11.684;2023-07-31T11:08:41;24.20;83.40
37874;DHT22;23709;48.078;11.684;2023-07-31T11:11:15;24.40;82.70
37874;DHT22;23709;48.078;11.684;2023-07-31T11:13:53;24.70;85.40
37874;DHT22;23709;48.078;11.684;2023-07-31T11:16:25;25.10;80.90
37874;DHT22;23709;48.078;11.684;2023-07-31T11:18:58;25.10;81.40
37874;DHT22;23709;48.078;11.684;2023-07-31T11:21:30;24.80;80.80
37874;DHT22;23709;48.078;11.684;2023-07-31T11:24:04;24.60;82.50
37874;DHT22;23709;48.078;11.684;2023-07-31T11:26:36;24.50;80.90
37874;DHT22;23709;48.078;11.684;2023-07-31T11:29:13;24.40;81.80
37874;DHT22;23709;48.078;11.684;2023-07-31T11:31:46;24.20;81.60
37874;DHT22;23709;48.078;11.684;2023-07-31T11:34:19;24.20;81.40
37874;DHT22;23709;48.078;11.684;2023-07-31T11:36:54;24.60;84.70
37874;DHT22;23709;48.078;11.684;2023-07-31T11:39:27;25.10;81.40
37874;DHT22;23709;48.078;11.684;2023-07-31T11:42:00;25.50;83.30
37874;DHT22;23709;48.078;11.684;2023-07-31T11:44:40;25.60;81.70
37874;DHT22;23709;48.078;11.684;2023-07-31T11:47:16;26.00;81.10
37874;DHT22;23709;48.078;11.684;2023-07-31T11:49:49;26.30;81.60
37874;DHT22;23709;48.078;11.684;2023-07-31T11:52:22;26.60;76.70
37874;DHT22;23709;48.078;11.684;2023-07-31T11:54:56;26.60;75.10
37874;DHT22;23709;48.078;11.684;2023-07-31T11:57:29;26.50;75.00
37874;DHT22;23709;48.078;11.684;2023-07-31T12:00:02;26.60;75.70
37874;DHT22;23709;48.078;11.684;2023-07-31T12:02:36;26.40;76.90
37874;DHT22;23709;48.078;11.684;2023-07-31T12:05:13;26.70;78.20
37874;DHT22;23709;48.078;11.684;2023-07-31T12:07:46;26.70;74.60
37874;DHT22;23709;48.078;11.684;2023-07-31T12:10:31;26.90;74.40
37874;DHT22;23709;48.078;11.684;2023-07-31T12:13:05;26.80;72.40
37874;DHT22;23709;48.078;11.684;2023-07-31T12:15:43;26.80;72.00
37874;DHT22;23709;48.078;11.684;2023-07-31T12:18:19;26.60;71.30
37874;DHT22;23709;48.078;11.684;2023-07-31T12:21:00;26.80;74.40
37874;DHT22;23709;48.078;11.684;2023-07-31T12:23:35;27.30;73.20
37874;DHT22;23709;48.078;11.684;2023-07-31T12:26:09;26.90;72.20
37874;DHT22;23709;48.078;11.684;2023-07-31T12:28:43;27.10;70.70
37874;DHT22;23709;48.078;11.684;2023-07-31T12:31:18;27.10;70.00
37874;DHT22;23709;48.078;11.684;2023-07-31T12:33:51;27.30;69.30
37874;DHT22;23709;48.078;11.684;2023-07-31T12:36:24;27.50;68.10
37874;DHT22;23709;48.078;11.684;2023-07-31T12:38:56;27.70;68.10
37874;DHT22;23709;48.078;11.684;2023-07-31T12:41:30;27.80;70.20
37874;DHT22;23709;48.078;11.684;2023-07-31T12:44:03;28.60;68.50
37874;DHT22;23709;48.078;11.684;2023-07-31T12:46:35;28.70;68.30
37874;DHT22;23709;48.078;11.684;2023-07-31T12:49:08;28.70;68.00
37874;DHT22;23709;48.078;11.684;2023-07-31T12:51:41;28.80;65.80
37874;DHT22;23709;48.078;11.684;2023-07-31T12:54:13;28.60;66.20
37874;DHT22;23709;48.078;11.684;2023-07-31T12:56:46;28.30;67.50
37874;DHT22;23709;48.078;11.684;2023-07-31T12:59:18;28.40;69.30
37874;DHT22;23709;48.078;11.684;2023-07-31T13:01:50;28.30;67.50
37874;DHT22;23709;48.078;11.684;2023-07-31T13:04:23;27.70;66.00
37874;DHT22;23709;48.078;11.684;2023-07-31T13:06:55;27.70;68.10
37874;DHT22;23709;48.078;11.684;2023-07-31T13:09:28;27.60;65.70
37874;DHT22;23709;48.078;11.684;2023-07-31T13:12:00;27.50;70.30
37874;DHT22;23709;48.078;11.684;2023-07-31T13:14:33;27.60;67.10
37874;DHT22;23709;48.078;11.684;2023-07-31T13:17:05;27.60;67.80
37874;DHT22;23709;48.078;11.684;2023-07-31T13:19:38;27.70;65.50
37874;DHT22;23709;48.078;11.684;2023-07-31T13:22:10;27.50;65.90
37874;DHT22;23709;48.078;11.684;2023-07-31T13:24:43;27.50;66.60
37874;DHT22;23709;48.078;11.684;2023-07-31T13:27:15;27.90;65.60
37874;DHT22;23709;48.078;11.684;2023-07-31T13:29:52;28.60;63.20
37874;DHT22;23709;48.078;11.684;2023-07-31T13:32:25;28.70;64.10
37874;DHT22;23709;48.078;11.684;2023-07-31T13:34:58;28.60;65.60
37874;DHT22;23709;48.078;11.684;2023-07-31T13:37:30;28.50;62.60
37874;DHT22;23709;48.078;11.684;2023-07-31T13:40:03;27.70;61.70
37874;DHT22;23709;48.078;11.684;2023-07-31T13:42:39;27.40;64.30
37874;DHT22;23709;48.078;11.684;2023-07-31T13:45:12;26.90;64.20
37874;DHT22;23709;48.078;11.684;2023-07-31T13:47:44;27.20;65.80
37874;DHT22;23709;48.078;11.684;2023-07-31T13:50:17;27.60;62.40
37874;DHT22;23709;48.078;11.684;2023-07-31T13:52:52;27.80;63.10
37874;DHT22;23709;48.078;11.684;2023-07-31T13:55:24;28.20;62.50
37874;DHT22;23709;48.078;11.684;2023-07-31T13:57:57;28.60;63.80
37874;DHT22;23709;48.078;11.684;2023-07-31T14:00:30;29.00;61.80
37874;DHT22;23709;48.078;11.684;2023-07-31T14:03:03;29.10;58.90
37874;DHT22;23709;48.078;11.684;2023-07-31T14:05:35;29.40;61.10
37874;DHT22;23709;48.078;11.684;2023-07-31T14:08:08;29.60;61.80
37874;DHT22;23709;48.078;11.684;2023-07-31T14:10:40;29.30;62.20
37874;DHT22;23709;48.078;11.684;2023-07-31T14:13:12;28.90;60.50
37874;DHT22;23709;48.078;11.684;2023-07-31T14:15:45;29.10;59.70
37874;DHT22;23709;48.078;11.684;2023-07-31T14:18:17;29.10;59.60
37874;DHT22;23709;48.078;11.684;2023-07-31T14:20:51;29.20;58.50
37874;DHT22;23709;48.078;11.684;2023-07-31T14:23:23;29.10;60.80
37874;DHT22;23709;48.078;11.684;2023-07-31T14:25:56;28.80;59.10
37874;DHT22;23709;48.078;11.684;2023-07-31T14:28:29;28.60;60.30
37874;DHT22;23709;48.078;11.684;2023-07-31T14:31:02;28.60;59.70
37874;DHT22;23709;48.078;11.684;2023-07-31T14:33:34;28.30;59.30
37874;DHT22;23709;48.078;11.684;2023-07-31T14:36:07;28.00;60.10
37874;DHT22;23709;48.078;11.684;2023-07-31T14:38:40;27.70;61.80
37874;DHT22;23709;48.078;11.684;2023-07-31T14:41:12;27.40;61.50
37874;DHT22;23709;48.078;11.684;2023-07-31T14:43:44;27.10;61.40
37874;DHT22;23709;48.078;11.684;2023-07-31T14:46:17;27.20;64.10
37874;DHT22;23709;48.078;11.684;2023-07-31T14:48:50;27.30;64.80
37874;DHT22;23709;48.078;11.684;2023-07-31T14:51:22;27.50;64.30
37874;DHT22;23709;48.078;11.684;2023-07-31T14:53:55;27.90;63.50
37874;DHT22;23709;48.078;11.684;2023-07-31T14:56:28;27.70;60.30
37874;DHT22;23709;48.078;11.684;2023-07-31T14:59:00;27.30;61.30
37874;DHT22;23709;48.078;11.684;2023-07-31T15:01:32;27.30;64.70
37874;DHT22;23709;48.078;11.684;2023-07-31T15:04:05;27.10;62.70
37874;DHT22;23709;48.078;11.684;2023-07-31T15:06:37;27.30;64.30
37874;DHT22;23709;48.078;11.684;2023-07-31T15:09:10;27.30;64.70
37874;DHT22;23709;48.078;11.684;2023-07-31T15:11:43;27.10;63.70
37874;DHT22;23709;48.078;11.684;2023-07-31T15:14:15;27.00;63.80
37874;DHT22;23709;48.078;11.684;2023-07-31T15:16:48;26.80;65.00
37874;DHT22;23709;48.078;11.684;2023-07-31T15:19:20;26.60;64.70
37874;DHT22;23709;48.078;11.684;2023-07-31T15:21:54;26.50;65.10
37874;DHT22;23709;48.078;11.684;2023-07-31T15:24:27;26.70;66.40
37874;DHT22;23709;48.078;11.684;2023-07-31T15:26:59;26.90;65.20
37874;DHT22;23709;48.078;11.684;2023-07-31T15:29:33;26.90;63.70
37874;DHT22;23709;48.078;11.684;2023-07-31T15:32:09;26.70;63.50
37874;DHT22;23709;48.078;11.684;2023-07-31T15:34:42;26.60;64.40
37874;DHT22;23709;48.078;11.684;2023-07-31T15:37:14;26.40;63.60
37874;DHT22;23709;48.078;11.684;2023-07-31T15:39:46;26.20;63.90
37874;DHT22;23709;48.078;11.684;2023-07-31T15:42:19;26.00;63.50
37874;DHT22;23709;48.078;11.684;2023-07-31T15:44:51;25.90;64.30
37874;DHT22;23709;48.078;11.684;2023-07-31T15:47:24;25.80;65.50
37874;DHT22;23709;48.078;11.684;2023-07-31T15:49:56;25.50;64.80
37874;DHT22;23709;48.078;11.684;2023-07-31T15:52:29;25.30;65.40
37874;DHT22;23709;48.078;11.684;2023-07-31T15:55:02;25.20;66.00
37874;DHT22;23709;48.078;11.684;2023-07-31T15:57:34;25.10;66.60
37874;DHT22;23709;48.078;11.684;2023-07-31T16:00:08;25.00;67.60
37874;DHT22;23709;48.078;11.684;2023-07-31T16:02:41;24.80;68.50
37874;DHT22;23709;48.078;11.684;2023-07-31T16:05:16;24.90;68.50